Time;durP1;ratioP1;P1;durP2;ratioP2;P2;SDS_P1;SDS_P2;PMS_P1;PMS_P2;Temp;Humidity;BMP_temperature;BMP_pressure;BME280_temperature;BME280_humidity;BME280_pressure;Samples;Min_cycle;Max_cycle;Signal;HPM_P1;HPM_P2
2022/04/22 00:01:24;;;;;;;6.35;3.47;;;12.20;99.90;;;;;;4998767;28;20065;-64
2022/04/22 00:03:50;;;;;;;7.47;3.80;;;12.20;99.90;;;;;;5016960;28;20034;-64
2022/04/22 00:06:16;;;;;;;5.90;3.20;;;12.10;99.90;;;;;;5035108;28;20454;-65
2022/04/22 00:08:41;;;;;;;5.32;3.03;;;12.10;99.90;;;;;;5036146;28;20045;-64
2022/04/22 00:13:52;;;;;;;5.47;3.30;;;12.20;99.90;;;;;;5036261;28;20458;-64
2022/04/22 00:16:17;;;;;;;6.38;3.78;;;12.10;99.90;;;;;;5018243;28;20041;-64
2022/04/22 00:18:44;;;;;;;6.30;4.05;;;12.10;99.90;;;;;;5018544;28;20075;-65
2022/04/22 00:21:10;;;;;;;6.07;4.00;;;12.00;99.90;;;;;;5035710;28;20052;-65
2022/04/22 00:23:35;;;;;;;8.30;4.70;;;11.90;99.90;;;;;;5035817;28;20037;-65
2022/04/22 00:26:01;;;;;;;8.35;4.75;;;11.90;99.90;;;;;;5019645;28;20081;-65
2022/04/22 00:28:27;;;;;;;8.95;4.43;;;11.70;99.90;;;;;;4998724;28;20041;-64
2022/04/22 00:30:53;;;;;;;8.65;5.28;;;11.70;99.90;;;;;;5015594;28;20042;-64
2022/04/22 00:33:19;;;;;;;7.63;5.30;;;11.70;99.90;;;;;;5015929;28;20046;-64
2022/04/22 00:35:45;;;;;;;10.43;6.25;;;11.70;99.90;;;;;;5029834;28;20416;-65
2022/04/22 00:38:10;;;;;;;9.18;6.03;;;11.60;99.90;;;;;;5018163;28;20037;-64
2022/04/22 00:40:37;;;;;;;9.98;5.80;;;11.40;99.90;;;;;;5035698;28;20038;-65
2022/04/22 00:43:21;;;;;;;9.80;6.40;;;11.30;99.90;;;;;;5035925;28;20037;-64
2022/04/22 00:45:47;;;;;;;8.57;5.80;;;11.40;99.90;;;;;;5035270;28;20108;-63
2022/04/22 00:48:14;;;;;;;10.65;6.95;;;11.40;99.90;;;;;;5017855;28;20045;-64
2022/04/22 00:50:40;;;;;;;9.50;6.45;;;11.30;99.90;;;;;;5035108;28;20046;-64
2022/04/22 00:53:07;;;;;;;11.27;6.75;;;11.20;99.90;;;;;;5017964;28;20091;-65
2022/04/22 00:55:35;;;;;;;11.70;6.78;;;11.30;99.90;;;;;;5018110;28;20102;-64
2022/04/22 00:58:01;;;;;;;12.60;7.40;;;11.20;99.90;;;;;;5035640;28;20124;-64
2022/04/22 01:00:27;;;;;;;10.15;6.75;;;11.10;99.90;;;;;;5035470;28;20041;-64
2022/04/22 01:02:54;;;;;;;10.80;6.80;;;11.20;99.90;;;;;;5017348;28;20084;-64
2022/04/22 01:10:48;;;;;;;12.57;7.82;;;11.10;99.90;;;;;;5017225;28;20049;-63
2022/04/22 01:13:15;;;;;;;12.20;7.15;;;11.00;99.90;;;;;;5034990;28;20107;-66
2022/04/22 01:15:41;;;;;;;16.58;7.60;;;11.00;99.90;;;;;;5017359;28;20045;-63
2022/04/22 01:18:07;;;;;;;12.57;7.75;;;11.00;99.90;;;;;;5035077;28;20048;-64
2022/04/22 01:20:33;;;;;;;13.07;6.90;;;11.00;99.90;;;;;;5017516;28;20423;-64
2022/04/22 01:22:59;;;;;;;12.85;7.45;;;11.00;99.90;;;;;;5017589;28;20080;-64
2022/04/22 01:25:24;;;;;;;10.63;7.50;;;10.90;99.90;;;;;;5024049;28;20466;-63
2022/04/22 01:27:51;;;;;;;12.73;6.88;;;10.90;99.90;;;;;;4981452;28;20041;-63
2022/04/22 01:30:22;;;;;;;13.43;7.97;;;10.90;99.90;;;;;;4997528;28;20119;-64
2022/04/22 01:32:54;;;;;;;14.85;7.72;;;10.90;99.90;;;;;;5014372;28;20041;-63
2022/04/22 01:35:20;;;;;;;10.70;7.18;;;10.90;99.90;;;;;;5007320;28;20458;-65
2022/04/22 01:37:47;;;;;;;12.45;7.75;;;10.80;99.90;;;;;;5034940;28;20068;-63
2022/04/22 01:40:13;;;;;;;11.48;7.75;;;10.80;99.90;;;;;;5034679;28;20047;-63
2022/04/22 01:42:40;;;;;;;14.65;7.68;;;10.90;99.90;;;;;;5017035;28;20046;-63
2022/04/22 01:45:07;;;;;;;12.65;7.65;;;10.90;99.90;;;;;;5016583;28;20390;-63
2022/04/22 01:47:33;;;;;;;11.45;7.70;;;10.80;99.90;;;;;;5034642;28;20037;-64
2022/04/22 01:49:59;;;;;;;14.25;8.27;;;10.80;99.90;;;;;;5034496;28;20423;-63
2022/04/22 01:52:26;;;;;;;12.32;8.15;;;10.70;99.90;;;;;;5016730;28;20389;-63
2022/04/22 01:54:52;;;;;;;13.10;8.25;;;10.60;99.90;;;;;;5028277;28;20069;-64
2022/04/22 01:57:18;;;;;;;13.48;8.27;;;10.60;99.90;;;;;;5014739;28;20462;-64
2022/04/22 01:59:46;;;;;;;14.18;8.18;;;10.50;99.90;;;;;;4997467;28;20459;-66
2022/04/22 02:02:16;;;;;;;13.75;7.55;;;10.60;99.90;;;;;;5014182;28;20415;-64
2022/04/22 02:04:41;;;;;;;13.38;8.07;;;10.50;99.90;;;;;;5018197;28;20049;-64
2022/04/22 02:07:07;;;;;;;13.05;8.02;;;10.60;99.90;;;;;;5034408;28;20041;-64
2022/04/22 02:09:33;;;;;;;11.60;8.18;;;10.60;99.90;;;;;;5034254;28;20466;-65
2022/04/22 02:11:59;;;;;;;13.65;8.57;;;10.50;99.90;;;;;;5016402;28;20188;-64
2022/04/22 02:14:25;;;;;;;13.40;8.63;;;10.40;99.90;;;;;;5031935;28;20124;-64
2022/04/22 02:16:52;;;;;;;13.85;8.68;;;10.50;99.90;;;;;;5014348;28;20121;-65
2022/04/22 02:19:18;;;;;;;14.30;8.65;;;10.40;99.90;;;;;;5014460;28;20049;-64
2022/04/22 02:21:44;;;;;;;13.30;9.15;;;10.40;99.90;;;;;;5014054;28;20168;-64
2022/04/22 02:24:10;;;;;;;14.05;8.60;;;10.40;99.90;;;;;;4997076;28;20383;-64
2022/04/22 02:29:21;;;;;;;17.85;10.40;;;10.30;99.90;;;;;;5034150;28;20371;-65
2022/04/22 02:31:48;;;;;;;16.00;9.88;;;10.20;99.90;;;;;;5033523;28;20049;-64
2022/04/22 02:34:14;;;;;;;16.85;10.32;;;10.20;99.90;;;;;;5033440;28;20121;-64
2022/04/22 02:36:41;;;;;;;16.80;10.18;;;10.20;99.90;;;;;;5014281;28;20141;-64
2022/04/22 02:39:07;;;;;;;17.42;11.80;;;10.20;99.90;;;;;;5013966;28;20352;-64
2022/04/22 02:47:01;;;;;;;17.13;10.90;;;10.00;99.90;;;;;;5034047;28;20045;-64
2022/04/22 02:49:27;;;;;;;15.55;10.48;;;10.10;99.90;;;;;;5033944;28;20037;-63
2022/04/22 02:51:52;;;;;;;16.30;10.93;;;10.00;99.90;;;;;;5016210;28;20045;-64
2022/04/22 02:54:18;;;;;;;18.55;10.75;;;10.00;99.90;;;;;;5032835;28;20037;-64
2022/04/22 02:56:44;;;;;;;18.33;10.75;;;9.90;99.90;;;;;;5014154;28;20459;-64
2022/04/22 02:59:10;;;;;;;16.77;10.20;;;9.90;99.90;;;;;;5014149;28;20046;-64
2022/04/22 03:01:36;;;;;;;17.95;10.82;;;9.80;99.90;;;;;;4996192;28;20046;-65
2022/04/22 03:04:03;;;;;;;19.25;11.07;;;9.80;99.90;;;;;;5014072;28;20041;-64
2022/04/22 03:06:29;;;;;;;16.75;10.38;;;9.70;99.90;;;;;;5032503;28;20053;-64
2022/04/22 03:08:54;;;;;;;17.55;11.07;;;9.60;99.90;;;;;;5016146;28;20045;-64
2022/04/22 03:11:21;;;;;;;16.60;10.38;;;9.60;99.90;;;;;;5033181;28;20080;-64
2022/04/22 03:13:51;;;;;;;18.75;10.32;;;9.60;99.90;;;;;;5016032;28;20049;-64
2022/04/22 03:16:23;;;;;;;16.23;10.68;;;9.50;99.90;;;;;;5019202;28;20049;-64
2022/04/22 03:18:48;;;;;;;18.85;11.13;;;9.50;99.90;;;;;;5017515;28;20077;-64
2022/04/22 03:21:15;;;;;;;17.10;11.20;;;9.50;99.90;;;;;;5017337;28;20089;-66
2022/04/22 03:23:40;;;;;;;17.00;9.75;;;9.50;99.90;;;;;;5017697;28;20145;-65
2022/04/22 03:26:06;;;;;;;18.08;11.30;;;9.50;99.90;;;;;;5032289;28;20467;-64
2022/04/22 03:28:32;;;;;;;14.52;10.60;;;9.40;99.90;;;;;;5019738;28;20132;-64
2022/04/22 03:30:57;;;;;;;16.63;10.15;;;9.40;99.90;;;;;;5037060;28;20103;-63
2022/04/22 03:33:23;;;;;;;15.27;10.20;;;9.30;99.90;;;;;;5019655;28;20161;-63
2022/04/22 03:35:50;;;;;;;16.30;10.45;;;9.30;99.90;;;;;;5023938;28;20369;-64
2022/04/22 03:38:20;;;;;;;14.95;9.52;;;9.20;99.90;;;;;;5017146;28;20030;-65
2022/04/22 03:40:50;;;;;;;16.02;9.95;;;9.20;99.90;;;;;;4999312;28;20046;-64
2022/04/22 03:43:16;;;;;;;26.30;11.38;;;9.20;99.90;;;;;;4983383;28;20045;-64
2022/04/22 03:45:42;;;;;;;18.15;10.52;;;9.20;99.90;;;;;;5010931;28;20053;-64
2022/04/22 03:48:09;;;;;;;16.52;10.00;;;9.10;99.90;;;;;;5019302;28;20404;-63
2022/04/22 03:50:36;;;;;;;13.95;9.45;;;9.00;99.90;;;;;;5036243;28;20147;-64
2022/04/22 03:53:02;;;;;;;17.98;11.38;;;9.00;99.90;;;;;;5036669;28;20374;-63
2022/04/22 03:55:28;;;;;;;14.70;9.70;;;9.00;99.90;;;;;;5026617;28;20045;-63
2022/04/22 03:58:12;;;;;;;19.60;10.68;;;8.90;99.90;;;;;;5016892;28;20728;-65
2022/04/22 04:00:46;;;;;;;15.70;9.45;;;9.10;99.90;;;;;;5016552;28;20046;-64
2022/04/22 04:03:19;;;;;;;18.58;10.70;;;9.10;99.90;;;;;;5016626;28;20284;-63
2022/04/22 04:05:50;;;;;;;16.02;10.10;;;9.10;99.90;;;;;;5028596;28;20037;-65
2022/04/22 04:08:17;;;;;;;15.65;10.30;;;9.10;99.90;;;;;;5036605;28;20051;-65
2022/04/22 04:16:12;;;;;;;21.08;10.63;;;8.90;99.90;;;;;;5020432;28;20077;-64
2022/04/22 04:18:38;;;;;;;16.58;9.95;;;8.90;99.90;;;;;;4999122;28;20104;-64
2022/04/22 04:23:50;;;;;;;14.40;8.60;;;8.90;99.90;;;;;;5016230;28;20360;-64
2022/04/22 04:26:17;;;;;;;15.30;9.57;;;9.00;99.90;;;;;;5032183;28;20095;-65
2022/04/22 04:28:47;;;;;;;12.65;8.55;;;8.90;99.90;;;;;;5035640;28;20362;-64
2022/04/22 04:31:13;;;;;;;11.30;8.00;;;8.90;99.90;;;;;;5035675;28;20080;-65
2022/04/22 04:33:39;;;;;;;14.88;8.45;;;8.90;99.90;;;;;;5036138;28;20084;-63
2022/04/22 04:36:06;;;;;;;14.50;9.05;;;8.80;99.90;;;;;;5020850;28;20084;-65
2022/04/22 04:38:32;;;;;;;14.70;8.70;;;8.70;99.90;;;;;;5015991;28;20077;-63
2022/04/22 04:40:58;;;;;;;12.90;8.50;;;8.80;99.90;;;;;;5015787;28;20379;-64
2022/04/22 04:43:24;;;;;;;15.85;8.50;;;8.70;99.90;;;;;;4998903;28;20103;-64
2022/04/22 04:45:50;;;;;;;14.10;7.95;;;8.70;99.90;;;;;;5010339;28;20425;-67
2022/04/22 04:48:19;;;;;;;16.27;8.23;;;8.90;99.90;;;;;;5035291;28;20037;-65
2022/04/22 04:50:46;;;;;;;16.75;7.90;;;8.80;99.90;;;;;;5035410;28;20049;-65
2022/04/22 04:53:12;;;;;;;12.50;7.80;;;8.80;99.90;;;;;;5017984;28;20120;-64
2022/04/22 04:55:39;;;;;;;12.75;8.10;;;8.70;99.90;;;;;;5007413;28;20046;-64
2022/04/22 04:58:05;;;;;;;10.80;6.63;;;8.80;99.90;;;;;;5015555;28;20466;-64
2022/04/22 05:00:30;;;;;;;13.32;7.28;;;8.70;99.90;;;;;;5014994;28;20127;-63
2022/04/22 05:02:56;;;;;;;12.07;6.90;;;8.70;99.90;;;;;;5013363;28;20069;-66
2022/04/22 05:05:23;;;;;;;13.77;6.78;;;8.80;99.90;;;;;;5014679;28;20041;-64
2022/04/22 05:07:57;;;;;;;11.18;6.55;;;8.70;99.90;;;;;;5014350;28;20106;-65
2022/04/22 05:10:24;;;;;;;12.98;6.82;;;8.80;99.90;;;;;;5014491;28;20068;-64
2022/04/22 05:12:50;;;;;;;11.10;6.88;;;8.70;99.90;;;;;;5014017;28;20439;-63
2022/04/22 05:15:24;;;;;;;11.38;6.95;;;8.80;99.90;;;;;;5012297;28;20049;-66
2022/04/22 05:17:51;;;;;;;12.10;6.80;;;8.70;99.90;;;;;;5014946;28;20037;-64
2022/04/22 05:20:20;;;;;;;12.80;6.68;;;8.70;99.90;;;;;;5014423;28;20045;-65
2022/04/22 05:22:46;;;;;;;9.40;5.95;;;8.80;99.90;;;;;;5013660;28;20443;-64
2022/04/22 05:25:13;;;;;;;11.88;6.85;;;8.80;99.90;;;;;;5014840;28;20034;-65
2022/04/22 05:27:39;;;;;;;11.32;6.60;;;8.90;99.90;;;;;;5015101;28;20029;-64
2022/04/22 05:32:51;;;;;;;12.55;6.57;;;8.70;99.90;;;;;;5014869;28;20053;-65
2022/04/22 05:35:26;;;;;;;11.40;6.10;;;8.80;99.90;;;;;;5014036;28;20068;-64
2022/04/22 05:37:56;;;;;;;8.95;5.53;;;9.10;99.90;;;;;;5006012;28;20048;-64
2022/04/22 05:40:28;;;;;;;9.20;5.47;;;9.30;99.90;;;;;;5013553;28;20415;-64
2022/04/22 05:42:55;;;;;;;10.07;5.63;;;9.30;99.90;;;;;;4997606;28;20297;-64
2022/04/22 05:45:22;;;;;;;10.93;5.13;;;9.30;99.90;;;;;;5005105;28;20489;-64
2022/04/22 05:47:51;;;;;;;9.77;5.25;;;9.30;99.90;;;;;;5027705;28;20026;-63
2022/04/22 05:50:18;;;;;;;8.32;5.05;;;9.40;99.90;;;;;;5013373;28;20100;-67
2022/04/22 05:52:44;;;;;;;8.70;5.13;;;9.20;99.90;;;;;;5014617;28;20040;-67
2022/04/22 05:55:12;;;;;;;9.40;5.32;;;9.30;99.90;;;;;;5020994;28;20121;-68
2022/04/22 05:57:39;;;;;;;10.55;5.18;;;9.40;99.90;;;;;;5020260;28;20113;-68
2022/04/22 06:00:07;;;;;;;11.48;5.35;;;9.40;99.90;;;;;;5012798;28;20048;-68
2022/04/22 06:02:34;;;;;;;11.23;5.10;;;9.40;99.90;;;;;;5013750;28;20095;-69
2022/04/22 06:05:00;;;;;;;9.13;4.53;;;9.50;99.90;;;;;;4983230;28;20069;-65
2022/04/22 06:07:26;;;;;;;7.18;4.95;;;9.70;99.90;;;;;;4996723;28;20081;-64
2022/04/22 06:12:36;;;;;;;8.85;4.70;;;9.80;99.90;;;;;;5014683;28;20042;-64
2022/04/22 06:15:04;;;;;;;9.52;5.20;;;10.10;99.90;;;;;;5020007;28;20091;-64
2022/04/22 06:17:30;;;;;;;7.82;4.35;;;10.20;99.90;;;;;;5016730;28;20045;-65
2022/04/22 06:19:57;;;;;;;6.68;4.28;;;10.20;99.90;;;;;;5033737;28;20037;-64
2022/04/22 06:22:23;;;;;;;8.23;4.88;;;10.30;99.90;;;;;;5033970;28;20052;-65
2022/04/22 06:24:49;;;;;;;10.07;4.60;;;10.20;99.90;;;;;;5008380;28;20065;-64
2022/04/22 06:27:28;;;;;;;9.70;5.15;;;10.20;99.90;;;;;;5014284;28;20551;-65
2022/04/22 06:29:55;;;;;;;10.95;5.20;;;10.10;99.90;;;;;;4980453;28;20053;-64
2022/04/22 06:32:27;;;;;;;7.68;4.07;;;10.10;99.90;;;;;;4995640;28;20100;-64
2022/04/22 06:34:53;;;;;;;9.27;4.88;;;10.10;99.90;;;;;;5000375;28;20045;-65
2022/04/22 06:37:19;;;;;;;9.32;4.68;;;10.10;99.90;;;;;;5012492;28;20099;-64
2022/04/22 06:47:58;;;;;;;8.88;4.70;;;10.20;99.90;;;;;;5015548;28;20060;-64
2022/04/22 06:50:24;;;;;;;6.97;4.22;;;9.90;99.90;;;;;;5035111;28;20045;-64
2022/04/22 06:52:50;;;;;;;8.32;4.28;;;10.00;99.90;;;;;;5037785;28;20076;-64
2022/04/22 06:55:17;;;;;;;7.32;4.20;;;10.10;99.90;;;;;;5030499;28;20096;-65
2022/04/22 06:57:48;;;;;;;10.02;4.53;;;10.30;99.90;;;;;;5017246;28;20038;-65
2022/04/22 07:00:15;;;;;;;9.85;4.30;;;10.90;99.90;;;;;;5016861;28;20037;-66
2022/04/22 07:02:41;;;;;;;7.28;3.95;;;11.60;99.90;;;;;;5017580;28;20084;-65
2022/04/22 07:05:09;;;;;;;6.85;3.85;;;12.20;99.90;;;;;;5023173;28;20048;-65
2022/04/22 07:07:35;;;;;;;8.93;4.07;;;12.50;99.90;;;;;;5037669;28;20099;-65
2022/04/22 07:10:01;;;;;;;9.38;4.57;;;12.80;99.90;;;;;;5019370;28;20091;-65
2022/04/22 07:12:27;;;;;;;7.80;4.93;;;13.00;99.90;;;;;;5020281;28;20038;-64
2022/04/22 07:15:06;;;;;;;10.43;3.90;;;13.20;99.90;;;;;;5033194;28;20041;-64
2022/04/22 07:17:36;;;;;;;11.43;4.18;;;13.60;99.90;;;;;;5017784;28;20403;-64
2022/04/22 07:20:09;;;;;;;15.45;4.32;;;13.90;99.90;;;;;;4983406;28;20052;-64
2022/04/22 07:22:40;;;;;;;8.45;4.30;;;13.90;99.90;;;;;;5017648;28;20042;-64
2022/04/22 07:25:07;;;;;;;14.70;4.60;;;13.80;99.90;;;;;;5017957;28;20037;-64
2022/04/22 07:27:35;;;;;;;10.88;4.20;;;13.70;99.90;;;;;;5016832;28;20046;-64
2022/04/22 07:30:01;;;;;;;7.50;4.13;;;13.40;99.90;;;;;;5015766;28;20458;-63
2022/04/22 07:32:27;;;;;;;5.07;3.53;;;13.20;99.90;;;;;;4999949;28;20187;-63
2022/04/22 07:34:55;;;;;;;8.75;4.03;;;12.80;99.90;;;;;;5020585;28;20548;-64
2022/04/22 07:37:22;;;;;;;10.65;4.72;;;12.80;99.90;;;;;;5036757;28;20466;-64
2022/04/22 07:39:48;;;;;;;7.22;3.70;;;12.90;99.90;;;;;;5036370;28;20041;-64
2022/04/22 07:42:17;;;;;;;14.77;4.20;;;13.00;99.90;;;;;;5037059;28;20148;-64
2022/04/22 07:47:46;;;;;;;10.95;3.92;;;12.90;99.90;;;;;;5036714;28;20045;-64
2022/04/22 07:50:13;;;;;;;9.80;3.70;;;12.90;99.90;;;;;;5036465;28;20048;-64
2022/04/22 07:52:44;;;;;;;7.40;3.90;;;13.00;99.90;;;;;;5036819;28;20064;-64
2022/04/22 07:55:10;;;;;;;6.97;3.88;;;12.90;99.90;;;;;;4997811;28;20052;-65
2022/04/22 07:57:36;;;;;;;6.05;3.95;;;12.90;99.90;;;;;;5016933;28;20041;-65
2022/04/22 08:00:03;;;;;;;5.95;3.53;;;13.10;99.90;;;;;;5034045;28;20383;-64
2022/04/22 08:02:29;;;;;;;7.32;3.67;;;13.20;99.90;;;;;;5034278;28;20041;-64
2022/04/22 08:04:55;;;;;;;7.93;3.22;;;13.40;99.90;;;;;;5034213;28;20033;-65
2022/04/22 08:07:20;;;;;;;11.73;3.92;;;13.50;99.90;;;;;;5036143;28;20034;-65
2022/04/22 08:09:46;;;;;;;7.13;3.90;;;13.40;99.90;;;;;;5018437;28;20044;-65
2022/04/22 08:12:16;;;;;;;5.72;3.38;;;13.40;99.90;;;;;;5018694;28;20057;-64
2022/04/22 08:14:42;;;;;;;5.43;3.35;;;13.30;99.90;;;;;;5018603;28;20053;-66
2022/04/22 08:17:07;;;;;;;6.05;3.38;;;13.40;99.90;;;;;;5035929;28;20104;-64
2022/04/22 08:19:34;;;;;;;6.35;3.58;;;13.60;99.90;;;;;;5036180;28;20076;-65
2022/04/22 08:21:59;;;;;;;5.57;3.50;;;13.70;99.90;;;;;;5018569;28;20048;-65
2022/04/22 08:24:25;;;;;;;8.50;3.03;;;13.70;99.90;;;;;;5036060;28;20033;-64
2022/04/22 08:26:51;;;;;;;5.07;3.08;;;13.70;99.90;;;;;;5018315;28;20455;-64
2022/04/22 08:29:17;;;;;;;5.10;3.15;;;13.80;99.90;;;;;;5035690;28;20060;-65
2022/04/22 08:31:44;;;;;;;5.35;2.80;;;13.70;99.90;;;;;;5035502;28;20045;-64
2022/04/22 08:34:10;;;;;;;4.30;3.00;;;13.80;99.90;;;;;;5035625;28;20041;-64
2022/04/22 08:36:36;;;;;;;9.85;3.30;;;13.80;99.90;;;;;;5017918;28;20051;-64
2022/04/22 08:39:02;;;;;;;7.00;2.85;;;13.90;99.90;;;;;;5035538;28;20037;-65
2022/04/22 08:41:27;;;;;;;8.60;3.20;;;14.10;99.90;;;;;;5018242;28;20072;-64
2022/04/22 08:43:56;;;;;;;6.18;3.28;;;14.20;99.90;;;;;;5036044;28;20037;-64
2022/04/22 08:51:54;;;;;;;8.20;2.80;;;14.30;99.90;;;;;;5035499;28;20052;-64
2022/04/22 08:54:20;;;;;;;7.20;3.15;;;14.40;99.70;;;;;;5035434;28;20060;-64
2022/04/22 08:56:49;;;;;;;7.05;3.17;;;14.40;99.90;;;;;;5035124;28;20037;-64
2022/04/22 08:59:16;;;;;;;6.90;2.90;;;14.40;99.90;;;;;;5017780;28;20053;-65
2022/04/22 09:01:42;;;;;;;7.40;2.92;;;14.50;99.80;;;;;;5035470;28;20047;-64
2022/04/22 09:04:07;;;;;;;6.72;2.92;;;14.50;99.80;;;;;;5035200;28;20041;-64
2022/04/22 09:06:34;;;;;;;5.25;2.55;;;14.70;99.70;;;;;;5035452;28;20044;-65
2022/04/22 09:08:59;;;;;;;5.22;2.58;;;14.60;99.30;;;;;;5018176;28;20052;-64
2022/04/22 09:11:29;;;;;;;6.25;2.75;;;14.80;98.70;;;;;;5035170;28;20034;-64
2022/04/22 09:13:54;;;;;;;3.78;2.13;;;14.90;98.70;;;;;;5034874;28;20045;-64
2022/04/22 09:16:21;;;;;;;7.03;2.50;;;14.90;98.50;;;;;;5035043;28;20053;-65
2022/04/22 09:18:46;;;;;;;6.22;2.63;;;14.90;98.90;;;;;;5034886;28;20065;-64
2022/04/22 09:21:16;;;;;;;4.75;2.42;;;14.90;99.00;;;;;;5001170;28;20088;-64
2022/04/22 09:23:42;;;;;;;6.85;2.78;;;14.90;98.90;;;;;;5034945;28;20370;-65
2022/04/22 09:26:27;;;;;;;6.00;2.45;;;15.00;99.10;;;;;;5017748;28;20037;-64
2022/04/22 09:29:05;;;;;;;3.92;2.13;;;15.10;99.20;;;;;;5035001;28;20052;-64
2022/04/22 09:31:47;;;;;;;5.45;2.30;;;15.20;97.30;;;;;;5018077;28;20045;-64
2022/04/22 09:34:14;;;;;;;4.32;2.30;;;15.20;97.90;;;;;;5000504;28;20116;-64
2022/04/22 09:45:05;;;;;;;3.90;2.05;;;15.50;97.40;;;;;;5034688;28;20049;-64
2022/04/22 09:47:33;;;;;;;5.20;2.40;;;15.60;96.70;;;;;;5035235;28;20052;-64
2022/04/22 09:49:59;;;;;;;3.28;2.00;;;15.70;96.20;;;;;;5017367;28;20512;-65
2022/04/22 09:52:27;;;;;;;5.68;2.10;;;15.70;95.80;;;;;;5017204;28;20507;-64
2022/04/22 09:55:03;;;;;;;5.60;2.10;;;15.80;95.90;;;;;;5016971;28;20098;-64
2022/04/22 09:57:48;;;;;;;3.72;2.28;;;15.90;95.50;;;;;;5017515;28;20042;-64
2022/04/22 10:00:16;;;;;;;5.78;2.13;;;16.00;95.40;;;;;;5034224;28;20374;-64
2022/04/22 10:02:43;;;;;;;3.75;1.90;;;16.10;95.10;;;;;;5034319;28;20106;-64
2022/04/22 10:05:09;;;;;;;7.38;1.92;;;16.20;94.80;;;;;;5017268;28;20044;-64
2022/04/22 10:07:36;;;;;;;3.67;1.92;;;16.10;95.20;;;;;;5000854;28;20454;-64
2022/04/22 10:10:03;;;;;;;4.40;2.15;;;16.40;93.90;;;;;;5016971;28;20041;-63
2022/04/22 10:12:30;;;;;;;5.43;2.45;;;16.40;93.80;;;;;;5016876;28;20053;-65
2022/04/22 10:14:59;;;;;;;4.68;2.20;;;16.40;94.40;;;;;;5034145;28;20052;-64
2022/04/22 10:17:24;;;;;;;4.30;1.95;;;16.50;93.90;;;;;;5016581;28;20077;-65
2022/04/22 10:19:53;;;;;;;6.15;1.90;;;16.50;93.80;;;;;;5016619;28;20064;-64
2022/04/22 10:22:19;;;;;;;4.43;2.40;;;16.60;93.30;;;;;;5034220;28;20131;-65
2022/04/22 10:24:46;;;;;;;4.55;2.05;;;16.70;93.10;;;;;;5032912;28;20336;-66
2022/04/22 10:27:13;;;;;;;6.30;2.20;;;16.60;93.70;;;;;;5016874;28;20103;-65
2022/04/22 10:29:41;;;;;;;3.83;1.83;;;16.70;92.50;;;;;;5016550;28;20050;-65
2022/04/22 10:32:09;;;;;;;5.82;2.55;;;16.90;92.30;;;;;;5031972;28;20048;-64
2022/04/22 10:34:39;;;;;;;6.32;2.58;;;16.90;92.80;;;;;;5016316;28;20053;-64
2022/04/22 10:37:26;;;;;;;5.80;2.58;;;17.00;93.00;;;;;;5016247;28;20045;-64
2022/04/22 10:39:56;;;;;;;4.80;2.50;;;17.00;92.40;;;;;;5033329;28;20057;-64
2022/04/22 10:42:37;;;;;;;5.35;3.00;;;17.10;92.10;;;;;;5033903;28;20042;-64
2022/04/22 10:47:55;;;;;;;4.22;2.05;;;17.00;92.80;;;;;;5012652;28;20089;-65
2022/04/22 10:50:29;;;;;;;4.93;2.65;;;17.20;92.40;;;;;;5013040;28;20387;-64
2022/04/22 10:53:03;;;;;;;5.30;2.72;;;17.20;91.80;;;;;;5030220;28;20191;-64
2022/04/22 10:55:39;;;;;;;4.43;2.47;;;17.10;92.10;;;;;;5028861;28;20060;-66
2022/04/22 10:58:14;;;;;;;4.75;2.60;;;17.10;92.10;;;;;;5033557;28;20434;-64
2022/04/22 11:00:44;;;;;;;5.18;2.53;;;17.20;92.20;;;;;;5034189;28;20042;-67
2022/04/22 11:03:19;;;;;;;5.20;2.60;;;17.30;92.00;;;;;;5033159;28;20052;-64
2022/04/22 11:05:59;;;;;;;5.05;2.50;;;17.40;92.10;;;;;;5027229;28;20443;-64
2022/04/22 11:08:29;;;;;;;5.03;2.65;;;17.40;92.80;;;;;;5033333;28;20045;-64
2022/04/22 11:10:54;;;;;;;5.28;2.50;;;17.50;91.80;;;;;;5016211;28;20110;-64
2022/04/22 11:13:30;;;;;;;5.00;2.50;;;17.40;91.90;;;;;;5033704;28;20052;-64
2022/04/22 11:16:05;;;;;;;5.20;2.60;;;17.60;92.00;;;;;;5033380;28;20056;-64
2022/04/22 11:18:31;;;;;;;4.90;3.00;;;17.70;92.20;;;;;;5033332;28;20462;-63
2022/04/22 11:21:10;;;;;;;5.10;2.53;;;17.70;92.40;;;;;;5033414;28;20068;-64
2022/04/22 11:23:44;;;;;;;7.32;2.60;;;17.90;93.00;;;;;;5033924;28;20084;-66
2022/04/22 11:26:15;;;;;;;7.53;2.95;;;18.10;91.40;;;;;;5015488;28;20108;-65
2022/04/22 11:28:42;;;;;;;9.57;2.30;;;18.10;91.70;;;;;;5015704;28;20103;-65
2022/04/22 11:31:11;;;;;;;5.68;2.83;;;18.20;91.90;;;;;;5015910;28;20479;-65
2022/04/22 11:33:54;;;;;;;6.35;3.50;;;18.20;91.90;;;;;;5015943;28;20110;-65
2022/04/22 11:36:20;;;;;;;9.47;2.90;;;18.30;92.00;;;;;;5033486;28;20048;-65
2022/04/22 11:38:51;;;;;;;7.80;3.55;;;18.30;91.60;;;;;;5036214;28;20276;-65
2022/04/22 11:41:17;;;;;;;6.35;3.30;;;18.10;91.40;;;;;;5019480;28;20060;-66
2022/04/22 11:43:43;;;;;;;5.90;3.10;;;18.10;91.70;;;;;;5019554;28;20034;-67
2022/04/22 11:46:13;;;;;;;5.95;2.80;;;18.10;92.40;;;;;;4988395;28;20061;-65
2022/04/22 11:49:05;;;;;;;6.13;2.72;;;18.20;92.10;;;;;;4999397;28;20050;-66
2022/04/22 11:51:36;;;;;;;4.55;2.80;;;18.40;91.80;;;;;;5017274;28;20065;-66
2022/04/22 11:54:02;;;;;;;4.75;2.83;;;18.20;91.60;;;;;;4999891;28;20463;-65
2022/04/22 11:56:27;;;;;;;7.53;3.25;;;18.40;91.70;;;;;;5018016;28;20108;-65
2022/04/22 11:58:57;;;;;;;6.32;2.67;;;18.40;91.50;;;;;;4999221;28;20063;-66
2022/04/22 12:07:01;;;;;;;;;;;18.50;91.80;;;;;;5018338;28;20069;-66
2022/04/22 12:09:28;;;;;;;6.35;3.40;;;18.50;91.60;;;;;;5019157;28;19917;-65
2022/04/22 12:11:57;;;;;;;4.53;2.95;;;18.50;91.40;;;;;;5018876;28;20094;-65
2022/04/22 12:14:28;;;;;;;5.85;3.30;;;18.60;91.30;;;;;;5036442;28;20522;-64
2022/04/22 12:16:58;;;;;;;4.50;2.67;;;18.70;90.80;;;;;;5000807;28;20843;-64
2022/04/22 12:19:26;;;;;;;8.38;3.50;;;18.70;90.60;;;;;;5016091;28;20402;-65
2022/04/22 12:21:52;;;;;;;5.32;3.35;;;18.70;91.60;;;;;;5016145;28;20068;-65
2022/04/22 12:24:19;;;;;;;7.88;3.83;;;18.90;91.00;;;;;;5016084;28;20053;-66
2022/04/22 12:26:44;;;;;;;6.82;4.15;;;18.80;91.70;;;;;;5016268;28;20048;-65
2022/04/22 12:29:12;;;;;;;5.25;3.30;;;18.90;90.90;;;;;;5015980;28;20034;-65
2022/04/22 12:31:43;;;;;;;5.82;3.05;;;18.90;90.10;;;;;;4985364;28;20117;-65
2022/04/22 12:34:10;;;;;;;8.23;3.78;;;18.70;90.00;;;;;;5016076;28;20041;-65
2022/04/22 12:36:57;;;;;;;6.15;2.97;;;18.60;90.10;;;;;;5007401;28;20383;-64
2022/04/22 12:39:34;;;;;;;6.75;3.53;;;18.60;90.70;;;;;;5000865;28;20052;-67
2022/04/22 12:42:00;;;;;;;6.70;3.92;;;18.80;90.40;;;;;;5013247;28;20053;-65
2022/04/22 12:44:26;;;;;;;8.35;3.65;;;18.90;90.30;;;;;;5003915;28;20467;-65
2022/04/22 12:52:35;;;;;;;6.35;4.32;;;19.10;90.50;;;;;;5026224;28;20052;-64
2022/04/22 12:55:08;;;;;;;6.03;3.72;;;18.90;90.00;;;;;;5034735;28;20033;-65
2022/04/22 12:57:35;;;;;;;8.33;3.50;;;19.10;90.50;;;;;;5019830;28;20061;-65
2022/04/22 13:00:00;;;;;;;6.90;3.90;;;19.20;90.00;;;;;;5018078;28;20308;-67
2022/04/22 13:02:32;;;;;;;8.82;4.43;;;19.20;90.00;;;;;;5023455;28;20051;-65
2022/04/22 13:05:04;;;;;;;7.50;4.40;;;19.00;90.10;;;;;;5034043;28;20037;-66
2022/04/22 13:08:09;;;;;;;10.02;4.45;;;19.10;90.10;;;;;;5035357;28;20041;-62
2022/04/22 13:10:35;;;;;;;7.25;4.38;;;19.00;90.10;;;;;;4939441;29;20043;-63
2022/04/22 13:13:00;;;;;;;9.52;4.70;;;18.90;90.00;;;;;;5000825;28;20049;-63
2022/04/22 13:15:26;;;;;;;7.53;4.53;;;18.80;90.40;;;;;;5035470;28;20037;-64
2022/04/22 13:17:53;;;;;;;6.30;4.20;;;18.80;90.10;;;;;;5016386;28;20052;-64
2022/04/22 13:20:21;;;;;;;9.35;4.60;;;18.80;90.60;;;;;;5017801;28;20041;-64
2022/04/22 13:22:47;;;;;;;6.75;4.45;;;18.60;90.80;;;;;;5035160;28;20034;-65
2022/04/22 13:25:15;;;;;;;8.32;4.68;;;18.60;90.50;;;;;;5013878;28;20080;-65
2022/04/22 13:27:42;;;;;;;8.15;4.70;;;18.60;90.90;;;;;;4997740;28;20045;-65
2022/04/22 13:30:09;;;;;;;8.18;4.43;;;18.70;90.80;;;;;;5014897;28;20057;-65
2022/04/22 13:32:35;;;;;;;8.98;5.32;;;18.80;90.60;;;;;;5017216;28;20045;-64
2022/04/22 13:35:01;;;;;;;8.80;4.70;;;19.20;90.50;;;;;;5017021;28;20103;-65
2022/04/22 13:37:26;;;;;;;8.73;4.82;;;19.10;89.60;;;;;;5016778;28;20045;-64
2022/04/22 13:39:52;;;;;;;8.63;5.10;;;19.20;90.10;;;;;;5034754;28;20033;-65
2022/04/22 13:42:18;;;;;;;9.15;5.10;;;19.10;90.70;;;;;;5016940;28;20366;-65
2022/04/22 13:52:57;;;;;;;16.73;5.05;;;19.20;90.20;;;;;;5016928;28;20011;-64
2022/04/22 13:55:23;;;;;;;10.32;5.22;;;19.10;90.40;;;;;;5016749;28;20187;-64
2022/04/22 13:57:49;;;;;;;9.18;5.53;;;19.10;90.80;;;;;;5016424;28;20038;-63
2022/04/22 14:00:15;;;;;;;10.02;4.82;;;19.00;90.80;;;;;;5015914;28;20041;-63
2022/04/22 14:02:41;;;;;;;10.32;5.30;;;19.00;90.60;;;;;;5016933;28;20045;-63
2022/04/22 14:05:07;;;;;;;6.40;4.95;;;19.00;90.50;;;;;;5033609;28;20037;-64
2022/04/22 14:07:32;;;;;;;9.93;4.80;;;19.00;90.90;;;;;;5016799;28;20081;-64